Lifter — V2DD4 — position and weather

sailwx.info

Track history (hours):
 
Tides and Currents Weather Stations Pressure Air Temp Water Temp Dewpoint Dewpoint Depression Visibility Wind Speed Wind Dir Waves Ship Positions

Lifter

Last reported at 2017-Nov-24 04:00 UTC. Time now 2017-Nov-24 04:06 UTC.
Position N 52°35' E 001°54'.

Length 119 m; draft 4.5 m.

Type: Cargo ship. MMSI: 305175000.

Date/timePositionNaut miles runAvg speedWind from/ knotsBaromVisibWave heightAir tempDewpointWater temp
2017-Nov-24 04:00N 52°35' E 001°54'611.7
2017-Nov-24 03:30N 52°40' E 001°55'611.9
2017-Nov-24 03:00N 52°46' E 001°53'612.5
2017-Nov-24 02:30N 52°50' E 001°46'612.4
2017-Nov-24 02:00N 52°55' E 001°38'612.4
2017-Nov-24 01:30N 52°59' E 001°31'612.4
2017-Nov-24 01:00N 53°05' E 001°26'612.6
2017-Nov-24 00:30N 53°10' E 001°20'612.5
2017-Nov-24 00:00N 53°15' E 001°14'4712.3
2017-Nov-23 20:09N 53°56' E 000°33'212.3
2017-Nov-23 20:00N 53°57' E 000°31'612.0
2017-Nov-23 19:30N 54°02' E 000°26'612.3
2017-Nov-23 19:00N 54°07' E 000°20'714.5
2017-Nov-23 18:31N 54°12' E 000°10'714.7
2017-Nov-23 18:00N 54°16' E 000°01'714.7
2017-Nov-23 17:31N 54°21' W 000°09'2914.4
2017-Nov-23 15:28N 54°38' W 000°50'1013.0
2017-Nov-23 14:43N 54°40' W 001°07'  
2017-Nov-19 10:00N 54°31' E 010°17'0 0.2
2017-Nov-19 07:36N 54°31' E 010°17'0 0.0
2017-Nov-19 07:27N 54°31' E 010°17'0 0.0
2017-Nov-19 04:08N 54°31' E 010°17'4 8.4
2017-Nov-19 03:39N 54°32' E 010°24'211.5
2017-Nov-19 03:29N 54°33' E 010°27'511.5
2017-Nov-19 03:00N 54°34' E 010°36'611.3
2017-Nov-19 02:31N 54°35' E 010°45'510.7
2017-Nov-19 02:01N 54°36' E 010°54'510.4
2017-Nov-19 01:31N 54°36' E 011°03'510.4
2017-Nov-19 01:01N 54°36' E 011°12'5 9.8
2017-Nov-19 00:30N 54°34' E 011°20'510.4
2017-Nov-19 00:01N 54°31' E 011°28'510.5
2017-Nov-18 23:30N 54°30' E 011°36'510.4
2017-Nov-18 23:01N 54°27' E 011°44'510.2
2017-Nov-18 22:30N 54°27' E 011°53'510.7
2017-Nov-18 22:00N 54°27' E 012°02'104 7.6
2017-Nov-18 08:20N 53°35' E 014°36'3 6.0
2017-Nov-18 07:48N 53°32' E 014°38'3 9.7
2017-Nov-18 07:30N 53°29' E 014°37'3 6.1
2017-Nov-18 06:59N 53°27' E 014°35'0 0.1
2017-Nov-18 06:19N 53°27' E 014°35'0 0.0
2017-Nov-18 05:55N 53°27' E 014°35'0 0.0
2017-Nov-18 05:28N 53°27' E 014°35'0 0.0
2017-Nov-18 04:58N 53°27' E 014°35'0 0.0
2017-Nov-18 04:22N 53°27' E 014°35'0 0.0
2017-Nov-18 03:52N 53°27' E 014°35'0 0.0
2017-Nov-18 03:28N 53°27' E 014°35'0 0.0
2017-Nov-18 02:55N 53°27' E 014°35'0 0.0
2017-Nov-18 02:25N 53°27' E 014°35'0 0.0
2017-Nov-18 01:55N 53°27' E 014°35'0 0.0
2017-Nov-18 01:16N 53°27' E 014°35'0 0.0
2017-Nov-18 00:25N 53°27' E 014°35'0 0.0
2017-Nov-17 23:52N 53°27' E 014°35'0 0.0
2017-Nov-17 23:25N 53°27' E 014°35'0 0.0
2017-Nov-17 22:55N 53°27' E 014°35'0 0.0
2017-Nov-17 22:22N 53°27' E 014°35'0 0.0
2017-Nov-17 21:55N 53°27' E 014°35'0 0.0
2017-Nov-17 21:28N 53°27' E 014°35'0 0.0
2017-Nov-17 20:49N 53°27' E 014°35'0 0.0
2017-Nov-17 20:25N 53°27' E 014°35'0 0.0
2017-Nov-17 19:58N 53°27' E 014°35'0 0.0
2017-Nov-17 19:25N 53°27' E 014°35'0 0.0
2017-Nov-17 18:52N 53°27' E 014°35'0 0.0
2017-Nov-17 18:28N 53°27' E 014°35'0 0.0
2017-Nov-17 17:52N 53°27' E 014°35'0 0.0
2017-Nov-17 17:25N 53°27' E 014°35'0 0.0
2017-Nov-17 15:46N 53°27' E 014°35'0 0.0
2017-Nov-17 15:22N 53°27' E 014°35'0 0.0
2017-Nov-17 14:49N 53°27' E 014°35'0 0.0
2017-Nov-17 14:25N 53°27' E 014°35'0 0.0
2017-Nov-17 13:55N 53°27' E 014°35'0 0.0
2017-Nov-17 13:22N 53°27' E 014°35'0 0.0
2017-Nov-17 12:49N 53°27' E 014°35'0 0.0
2017-Nov-17 12:28N 53°27' E 014°35'0 0.0
2017-Nov-17 11:55N 53°27' E 014°35'0 0.0
2017-Nov-17 11:28N 53°27' E 014°35'0 0.0
2017-Nov-17 10:52N 53°27' E 014°35'0 0.0
2017-Nov-17 10:26N 53°27' E 014°35'0 0.0
2017-Nov-17 09:56N 53°27' E 014°35'0 0.0
2017-Nov-17 09:23N 53°27' E 014°35'0 0.0
2017-Nov-17 08:50N 53°27' E 014°35'0 0.0
2017-Nov-17 08:29N 53°27' E 014°35'0 0.0
2017-Nov-17 07:44N 53°27' E 014°35'0 0.0
2017-Nov-17 07:26N 53°27' E 014°35'0 0.0
2017-Nov-17 06:59N 53°27' E 014°35'0 0.0
2017-Nov-17 06:29N 53°27' E 014°35'0 0.0
2017-Nov-17 05:56N 53°27' E 014°35'0 0.0
2017-Nov-17 05:29N 53°27' E 014°35'0 0.0
2017-Nov-17 04:56N 53°27' E 014°35'0 0.0
2017-Nov-17 04:26N 53°27' E 014°35'0 0.0
2017-Nov-17 03:56N 53°27' E 014°35'0 0.0
2017-Nov-17 03:26N 53°27' E 014°35'0 0.0
2017-Nov-17 02:56N 53°27' E 014°35'0 0.0
2017-Nov-17 02:29N 53°27' E 014°35'0 0.0
2017-Nov-17 01:53N 53°27' E 014°35'0 0.0
2017-Nov-17 01:23N 53°27' E 014°35'0 0.0
2017-Nov-17 00:56N 53°27' E 014°35'0 0.0
2017-Nov-17 00:26N 53°27' E 014°35'0 0.0
2017-Nov-16 23:56N 53°27' E 014°35'0 0.0
2017-Nov-16 23:29N 53°27' E 014°35'0 0.0
2017-Nov-16 22:56N 53°27' E 014°35'0 0.0
2017-Nov-16 22:11N 53°27' E 014°35'0 0.0
2017-Nov-16 21:50N 53°27' E 014°35'0 0.0
2017-Nov-16 21:10N 53°27' E 014°35'0 0.2
2017-Nov-16 20:59N 53°27' E 014°35'2 2.9
2017-Nov-16 20:27N 53°28' E 014°36'4 8.6
2017-Nov-16 20:00N 53°32' E 014°38'610.8
2017-Nov-16 19:26N 53°38' E 014°35'97 8.5
2017-Nov-16 08:02N 54°29' E 012°15'014.1
2017-Nov-16 08:00N 54°28' E 012°15'2012.2
2017-Nov-16 06:20N 54°27' E 011°40'813.7
2017-Nov-16 05:46N 54°30' E 011°28'513.7
2017-Nov-16 05:22N 54°32' E 011°20'512.2
2017-Nov-16 05:00N 54°34' E 011°13'612.9
2017-Nov-16 04:30N 54°35' E 011°02'713.4
2017-Nov-16 04:00N 54°34' E 010°50'713.6
2017-Nov-16 03:30N 54°34' E 010°39'713.8
2017-Nov-16 03:01N 54°32' E 010°28'613.0
2017-Nov-16 02:31N 54°29' E 010°17'612.2
2017-Nov-16 02:00N 54°24' E 010°12'11 4.9
2017-Nov-15 23:44N 54°21' E 009°54'2 8.9
2017-Nov-15 23:30N 54°22' E 009°50'4 8.3
2017-Nov-15 23:00N 54°20' E 009°44'3 6.0
2017-Nov-15 22:30N 54°18' E 009°41'3 6.3
2017-Nov-15 22:00N 54°15' E 009°37'3 5.7
2017-Nov-15 21:31N 54°13' E 009°35'2 3.3
2017-Nov-15 21:00N 54°12' E 009°33'3 6.3
2017-Nov-15 20:30N 54°11' E 009°28'3 6.5
2017-Nov-15 20:01N 54°09' E 009°23'3 5.1
2017-Nov-15 19:30N 54°07' E 009°20'3 6.6
2017-Nov-15 19:00N 54°04' E 009°19'3 6.9
2017-Nov-15 18:30N 54°01' E 009°18'4 8.3
2017-Nov-15 18:01N 53°57' E 009°14'4 8.1
2017-Nov-15 17:30N 53°54' E 009°10'1 1.7
2017-Nov-15 17:00N 53°54' E 009°09'1 2.9
2017-Nov-15 16:30N 53°53' E 009°06'5 9.1
2017-Nov-15 16:00N 53°51' E 008°59'510.0
2017-Nov-15 15:30N 53°50' E 008°51'5 9.1
2017-Nov-15 15:00N 53°52' E 008°44'4 8.9
2017-Nov-15 14:30N 53°56' E 008°40'510.0
2017-Nov-15 14:00N 53°58' E 008°32'611.4
2017-Nov-15 13:30N 53°59' E 008°22'612.8
2017-Nov-15 13:00N 53°60' E 008°12'611.7
2017-Nov-15 12:30N 53°58' E 008°02'612.7
2017-Nov-15 12:00N 53°54' E 007°54'510.1
2017-Nov-15 11:30N 53°51' E 008°01'815.5
2017-Nov-15 11:00N 53°46' E 008°11'715.2
2017-Nov-15 10:30N 53°41' E 008°21'713.8
2017-Nov-15 10:00N 53°37' E 008°30'510.2
2017-Nov-15 09:30N 53°32' E 008°34'510.2
2017-Nov-15 09:00N 53°28' E 008°30'611.8
2017-Nov-15 08:30N 53°22' E 008°30'611.4
2017-Nov-15 08:01N 53°17' E 008°29'510.3
2017-Nov-15 07:30N 53°12' E 008°32'5 9.5
2017-Nov-15 07:01N 53°09' E 008°38'3 6.5
2017-Nov-15 06:31N 53°07' E 008°43'0 0.2
2017-Nov-15 06:00N 53°07' E 008°43'0 0.3
2017-Nov-15 05:30N 53°07' E 008°43'0 0.0
2017-Nov-15 05:00N 53°07' E 008°43'0 0.0
2017-Nov-15 04:30N 53°07' E 008°43'0 0.0
2017-Nov-15 04:00N 53°07' E 008°43'0 0.0
2017-Nov-15 03:30N 53°07' E 008°43'0 0.0
2017-Nov-15 03:00N 53°07' E 008°43'0 0.0
2017-Nov-15 02:30N 53°07' E 008°43'0 0.0
2017-Nov-15 02:00N 53°07' E 008°43'0 0.0
2017-Nov-15 01:30N 53°07' E 008°43'0 0.0
2017-Nov-15 01:00N 53°07' E 008°43'0 0.0
2017-Nov-15 00:30N 53°07' E 008°43'0 0.0
2017-Nov-15 00:00N 53°07' E 008°43'0 0.0
2017-Nov-14 23:30N 53°07' E 008°43'0 0.0
2017-Nov-14 23:00N 53°07' E 008°43'0 0.0
2017-Nov-14 22:30N 53°07' E 008°43'0 0.0
2017-Nov-14 22:00N 53°07' E 008°43'0 0.0
2017-Nov-14 21:30N 53°07' E 008°43'0 0.0
2017-Nov-14 21:00N 53°07' E 008°43'0 0.0
2017-Nov-14 20:30N 53°07' E 008°43'0 0.0
2017-Nov-14 20:00N 53°07' E 008°43'0 0.0
2017-Nov-14 19:30N 53°07' E 008°43'0 0.0
2017-Nov-14 19:00N 53°07' E 008°43'0 0.0
2017-Nov-14 18:30N 53°07' E 008°43'0 0.0
2017-Nov-14 18:00N 53°07' E 008°43'0 0.0
2017-Nov-14 17:30N 53°07' E 008°43'0 0.0
2017-Nov-14 17:00N 53°07' E 008°43'0 0.0
2017-Nov-14 16:30N 53°07' E 008°43'0 0.0
2017-Nov-14 16:00N 53°07' E 008°43'0 0.0
2017-Nov-14 15:30N 53°07' E 008°43'0 0.0
2017-Nov-14 15:00N 53°07' E 008°43'0 0.0
2017-Nov-14 14:30N 53°07' E 008°43'0 0.0
2017-Nov-14 14:00N 53°07' E 008°43'0 0.0
2017-Nov-14 13:30N 53°07' E 008°43'0 0.0
2017-Nov-14 13:00N 53°07' E 008°43'0 0.0
2017-Nov-14 12:30N 53°07' E 008°43'0 0.0
2017-Nov-14 12:00N 53°07' E 008°43'0 0.0
2017-Nov-14 11:30N 53°07' E 008°43'0 0.0
2017-Nov-14 11:00N 53°07' E 008°43'0 0.0
2017-Nov-14 10:30N 53°07' E 008°43'0 0.0
2017-Nov-14 10:00N 53°07' E 008°43'0 0.0
2017-Nov-14 09:30N 53°07' E 008°43'0 0.0
2017-Nov-14 09:00N 53°07' E 008°43'0 0.0
2017-Nov-14 08:30N 53°07' E 008°43'0 0.0
2017-Nov-14 08:00N 53°07' E 008°43'0 0.0
2017-Nov-14 07:30N 53°07' E 008°43'0 0.0
2017-Nov-14 07:00N 53°07' E 008°43'0 0.0
2017-Nov-14 06:30N 53°07' E 008°43'0 0.1
2017-Nov-14 06:00N 53°07' E 008°43'0 0.8
2017-Nov-14 05:30N 53°07' E 008°44'0 0.3
2017-Nov-14 05:00N 53°07' E 008°44'0 0.0
2017-Nov-14 04:29N 53°07' E 008°44'  
Track history (hours):
 
Tides and Currents Weather Stations Pressure Air Temp Water Temp Dewpoint Dewpoint Depression Visibility Wind Speed Wind Dir Waves Ship Positions

Lifter

Last reported at 2017-Nov-24 04:00 UTC. Time now 2017-Nov-24 04:06 UTC.
Position N 52°35' E 001°54'.

Length 119 m; draft 4.5 m.

Type: Cargo ship. MMSI: 305175000.

Date/timePositionNaut miles runAvg speedWind from/ knotsBaromVisibWave heightAir tempDewpointWater temp
2017-Nov-24 04:00N 52°35' E 001°54'611.7
2017-Nov-24 03:30N 52°40' E 001°55'611.9
2017-Nov-24 03:00N 52°46' E 001°53'612.5
2017-Nov-24 02:30N 52°50' E 001°46'612.4
2017-Nov-24 02:00N 52°55' E 001°38'612.4
2017-Nov-24 01:30N 52°59' E 001°31'612.4
2017-Nov-24 01:00N 53°05' E 001°26'612.6
2017-Nov-24 00:30N 53°10' E 001°20'612.5
2017-Nov-24 00:00N 53°15' E 001°14'4712.3
2017-Nov-23 20:09N 53°56' E 000°33'212.3
2017-Nov-23 20:00N 53°57' E 000°31'612.0
2017-Nov-23 19:30N 54°02' E 000°26'612.3
2017-Nov-23 19:00N 54°07' E 000°20'714.5
2017-Nov-23 18:31N 54°12' E 000°10'714.7
2017-Nov-23 18:00N 54°16' E 000°01'714.7
2017-Nov-23 17:31N 54°21' W 000°09'2914.4
2017-Nov-23 15:28N 54°38' W 000°50'1013.0
2017-Nov-23 14:43N 54°40' W 001°07'  
2017-Nov-19 10:00N 54°31' E 010°17'0 0.2
2017-Nov-19 07:36N 54°31' E 010°17'0 0.0
2017-Nov-19 07:27N 54°31' E 010°17'0 0.0
2017-Nov-19 04:08N 54°31' E 010°17'4 8.4
2017-Nov-19 03:39N 54°32' E 010°24'211.5
2017-Nov-19 03:29N 54°33' E 010°27'511.5
2017-Nov-19 03:00N 54°34' E 010°36'611.3
2017-Nov-19 02:31N 54°35' E 010°45'510.7
2017-Nov-19 02:01N 54°36' E 010°54'510.4
2017-Nov-19 01:31N 54°36' E 011°03'510.4
2017-Nov-19 01:01N 54°36' E 011°12'5 9.8
2017-Nov-19 00:30N 54°34' E 011°20'510.4
2017-Nov-19 00:01N 54°31' E 011°28'510.5
2017-Nov-18 23:30N 54°30' E 011°36'510.4
2017-Nov-18 23:01N 54°27' E 011°44'510.2
2017-Nov-18 22:30N 54°27' E 011°53'510.7
2017-Nov-18 22:00N 54°27' E 012°02'104 7.6
2017-Nov-18 08:20N 53°35' E 014°36'3 6.0
2017-Nov-18 07:48N 53°32' E 014°38'3 9.7
2017-Nov-18 07:30N 53°29' E 014°37'3 6.1
2017-Nov-18 06:59N 53°27' E 014°35'0 0.1
2017-Nov-18 06:19N 53°27' E 014°35'0 0.0
2017-Nov-18 05:55N 53°27' E 014°35'0 0.0
2017-Nov-18 05:28N 53°27' E 014°35'0 0.0
2017-Nov-18 04:58N 53°27' E 014°35'0 0.0
2017-Nov-18 04:22N 53°27' E 014°35'0 0.0
2017-Nov-18 03:52N 53°27' E 014°35'0 0.0
2017-Nov-18 03:28N 53°27' E 014°35'0 0.0
2017-Nov-18 02:55N 53°27' E 014°35'0 0.0
2017-Nov-18 02:25N 53°27' E 014°35'0 0.0
2017-Nov-18 01:55N 53°27' E 014°35'0 0.0
2017-Nov-18 01:16N 53°27' E 014°35'0 0.0
2017-Nov-18 00:25N 53°27' E 014°35'0 0.0
2017-Nov-17 23:52N 53°27' E 014°35'0 0.0
2017-Nov-17 23:25N 53°27' E 014°35'0 0.0
2017-Nov-17 22:55N 53°27' E 014°35'0 0.0
2017-Nov-17 22:22N 53°27' E 014°35'0 0.0
2017-Nov-17 21:55N 53°27' E 014°35'0 0.0
2017-Nov-17 21:28N 53°27' E 014°35'0 0.0
2017-Nov-17 20:49N 53°27' E 014°35'0 0.0
2017-Nov-17 20:25N 53°27' E 014°35'0 0.0
2017-Nov-17 19:58N 53°27' E 014°35'0 0.0
2017-Nov-17 19:25N 53°27' E 014°35'0 0.0
2017-Nov-17 18:52N 53°27' E 014°35'0 0.0
2017-Nov-17 18:28N 53°27' E 014°35'0 0.0
2017-Nov-17 17:52N 53°27' E 014°35'0 0.0
2017-Nov-17 17:25N 53°27' E 014°35'0 0.0
2017-Nov-17 15:46N 53°27' E 014°35'0 0.0
2017-Nov-17 15:22N 53°27' E 014°35'0 0.0
2017-Nov-17 14:49N 53°27' E 014°35'0 0.0
2017-Nov-17 14:25N 53°27' E 014°35'0 0.0
2017-Nov-17 13:55N 53°27' E 014°35'0 0.0
2017-Nov-17 13:22N 53°27' E 014°35'0 0.0
2017-Nov-17 12:49N 53°27' E 014°35'0 0.0
2017-Nov-17 12:28N 53°27' E 014°35'0 0.0
2017-Nov-17 11:55N 53°27' E 014°35'0 0.0
2017-Nov-17 11:28N 53°27' E 014°35'0 0.0
2017-Nov-17 10:52N 53°27' E 014°35'0 0.0
2017-Nov-17 10:26N 53°27' E 014°35'0 0.0
2017-Nov-17 09:56N 53°27' E 014°35'0 0.0
2017-Nov-17 09:23N 53°27' E 014°35'0 0.0
2017-Nov-17 08:50N 53°27' E 014°35'0 0.0
2017-Nov-17 08:29N 53°27' E 014°35'0 0.0
2017-Nov-17 07:44N 53°27' E 014°35'0 0.0
2017-Nov-17 07:26N 53°27' E 014°35'0 0.0
2017-Nov-17 06:59N 53°27' E 014°35'0 0.0
2017-Nov-17 06:29N 53°27' E 014°35'0 0.0
2017-Nov-17 05:56N 53°27' E 014°35'0 0.0
2017-Nov-17 05:29N 53°27' E 014°35'0 0.0
2017-Nov-17 04:56N 53°27' E 014°35'0 0.0
2017-Nov-17 04:26N 53°27' E 014°35'0 0.0
2017-Nov-17 03:56N 53°27' E 014°35'0 0.0
2017-Nov-17 03:26N 53°27' E 014°35'0 0.0
2017-Nov-17 02:56N 53°27' E 014°35'0 0.0
2017-Nov-17 02:29N 53°27' E 014°35'0 0.0
2017-Nov-17 01:53N 53°27' E 014°35'0 0.0
2017-Nov-17 01:23N 53°27' E 014°35'0 0.0
2017-Nov-17 00:56N 53°27' E 014°35'0 0.0
2017-Nov-17 00:26N 53°27' E 014°35'0 0.0
2017-Nov-16 23:56N 53°27' E 014°35'0 0.0
2017-Nov-16 23:29N 53°27' E 014°35'0 0.0
2017-Nov-16 22:56N 53°27' E 014°35'0 0.0
2017-Nov-16 22:11N 53°27' E 014°35'0 0.0
2017-Nov-16 21:50N 53°27' E 014°35'0 0.0
2017-Nov-16 21:10N 53°27' E 014°35'0 0.2
2017-Nov-16 20:59N 53°27' E 014°35'2 2.9
2017-Nov-16 20:27N 53°28' E 014°36'4 8.6
2017-Nov-16 20:00N 53°32' E 014°38'610.8
2017-Nov-16 19:26N 53°38' E 014°35'97 8.5
2017-Nov-16 08:02N 54°29' E 012°15'014.1
2017-Nov-16 08:00N 54°28' E 012°15'2012.2
2017-Nov-16 06:20N 54°27' E 011°40'813.7
2017-Nov-16 05:46N 54°30' E 011°28'513.7
2017-Nov-16 05:22N 54°32' E 011°20'512.2
2017-Nov-16 05:00N 54°34' E 011°13'612.9
2017-Nov-16 04:30N 54°35' E 011°02'713.4
2017-Nov-16 04:00N 54°34' E 010°50'713.6
2017-Nov-16 03:30N 54°34' E 010°39'713.8
2017-Nov-16 03:01N 54°32' E 010°28'613.0
2017-Nov-16 02:31N 54°29' E 010°17'612.2
2017-Nov-16 02:00N 54°24' E 010°12'11 4.9
2017-Nov-15 23:44N 54°21' E 009°54'2 8.9
2017-Nov-15 23:30N 54°22' E 009°50'4 8.3
2017-Nov-15 23:00N 54°20' E 009°44'3 6.0
2017-Nov-15 22:30N 54°18' E 009°41'3 6.3
2017-Nov-15 22:00N 54°15' E 009°37'3 5.7
2017-Nov-15 21:31N 54°13' E 009°35'2 3.3
2017-Nov-15 21:00N 54°12' E 009°33'3 6.3
2017-Nov-15 20:30N 54°11' E 009°28'3 6.5
2017-Nov-15 20:01N 54°09' E 009°23'3 5.1
2017-Nov-15 19:30N 54°07' E 009°20'3 6.6
2017-Nov-15 19:00N 54°04' E 009°19'3 6.9
2017-Nov-15 18:30N 54°01' E 009°18'4 8.3
2017-Nov-15 18:01N 53°57' E 009°14'4 8.1
2017-Nov-15 17:30N 53°54' E 009°10'1 1.7
2017-Nov-15 17:00N 53°54' E 009°09'1 2.9
2017-Nov-15 16:30N 53°53' E 009°06'5 9.1
2017-Nov-15 16:00N 53°51' E 008°59'510.0
2017-Nov-15 15:30N 53°50' E 008°51'5 9.1
2017-Nov-15 15:00N 53°52' E 008°44'4 8.9
2017-Nov-15 14:30N 53°56' E 008°40'510.0
2017-Nov-15 14:00N 53°58' E 008°32'611.4
2017-Nov-15 13:30N 53°59' E 008°22'612.8
2017-Nov-15 13:00N 53°60' E 008°12'611.7
2017-Nov-15 12:30N 53°58' E 008°02'612.7
2017-Nov-15 12:00N 53°54' E 007°54'510.1
2017-Nov-15 11:30N 53°51' E 008°01'815.5
2017-Nov-15 11:00N 53°46' E 008°11'715.2
2017-Nov-15 10:30N 53°41' E 008°21'713.8
2017-Nov-15 10:00N 53°37' E 008°30'510.2
2017-Nov-15 09:30N 53°32' E 008°34'510.2
2017-Nov-15 09:00N 53°28' E 008°30'611.8
2017-Nov-15 08:30N 53°22' E 008°30'611.4
2017-Nov-15 08:01N 53°17' E 008°29'510.3
2017-Nov-15 07:30N 53°12' E 008°32'5 9.5
2017-Nov-15 07:01N 53°09' E 008°38'3 6.5
2017-Nov-15 06:31N 53°07' E 008°43'0 0.2
2017-Nov-15 06:00N 53°07' E 008°43'0 0.3
2017-Nov-15 05:30N 53°07' E 008°43'0 0.0
2017-Nov-15 05:00N 53°07' E 008°43'0 0.0
2017-Nov-15 04:30N 53°07' E 008°43'0 0.0
2017-Nov-15 04:00N 53°07' E 008°43'0 0.0
2017-Nov-15 03:30N 53°07' E 008°43'0 0.0
2017-Nov-15 03:00N 53°07' E 008°43'0 0.0
2017-Nov-15 02:30N 53°07' E 008°43'0 0.0
2017-Nov-15 02:00N 53°07' E 008°43'0 0.0
2017-Nov-15 01:30N 53°07' E 008°43'0 0.0
2017-Nov-15 01:00N 53°07' E 008°43'0 0.0
2017-Nov-15 00:30N 53°07' E 008°43'0 0.0
2017-Nov-15 00:00N 53°07' E 008°43'0 0.0
2017-Nov-14 23:30N 53°07' E 008°43'0 0.0
2017-Nov-14 23:00N 53°07' E 008°43'0 0.0
2017-Nov-14 22:30N 53°07' E 008°43'0 0.0
2017-Nov-14 22:00N 53°07' E 008°43'0 0.0
2017-Nov-14 21:30N 53°07' E 008°43'0 0.0
2017-Nov-14 21:00N 53°07' E 008°43'0 0.0
2017-Nov-14 20:30N 53°07' E 008°43'0 0.0
2017-Nov-14 20:00N 53°07' E 008°43'0 0.0
2017-Nov-14 19:30N 53°07' E 008°43'0 0.0
2017-Nov-14 19:00N 53°07' E 008°43'0 0.0
2017-Nov-14 18:30N 53°07' E 008°43'0 0.0
2017-Nov-14 18:00N 53°07' E 008°43'0 0.0
2017-Nov-14 17:30N 53°07' E 008°43'0 0.0
2017-Nov-14 17:00N 53°07' E 008°43'0 0.0
2017-Nov-14 16:30N 53°07' E 008°43'0 0.0
2017-Nov-14 16:00N 53°07' E 008°43'0 0.0
2017-Nov-14 15:30N 53°07' E 008°43'0 0.0
2017-Nov-14 15:00N 53°07' E 008°43'0 0.0
2017-Nov-14 14:30N 53°07' E 008°43'0 0.0
2017-Nov-14 14:00N 53°07' E 008°43'0 0.0
2017-Nov-14 13:30N 53°07' E 008°43'0 0.0
2017-Nov-14 13:00N 53°07' E 008°43'0 0.0
2017-Nov-14 12:30N 53°07' E 008°43'0 0.0
2017-Nov-14 12:00N 53°07' E 008°43'0 0.0
2017-Nov-14 11:30N 53°07' E 008°43'0 0.0
2017-Nov-14 11:00N 53°07' E 008°43'0 0.0
2017-Nov-14 10:30N 53°07' E 008°43'0 0.0
2017-Nov-14 10:00N 53°07' E 008°43'0 0.0
2017-Nov-14 09:30N 53°07' E 008°43'0 0.0
2017-Nov-14 09:00N 53°07' E 008°43'0 0.0
2017-Nov-14 08:30N 53°07' E 008°43'0 0.0
2017-Nov-14 08:00N 53°07' E 008°43'0 0.0
2017-Nov-14 07:30N 53°07' E 008°43'0 0.0
2017-Nov-14 07:00N 53°07' E 008°43'0 0.0
2017-Nov-14 06:30N 53°07' E 008°43'0 0.1
2017-Nov-14 06:00N 53°07' E 008°43'0 0.8
2017-Nov-14 05:30N 53°07' E 008°44'0 0.3
2017-Nov-14 05:00N 53°07' E 008°44'0 0.0
2017-Nov-14 04:29N 53°07' E 008°44'  

Dump ship's entire track history